createdAt,value
2017-09-22T00:00:44.266Z,69.15
2017-09-22T00:03:11.655Z,68.42
2017-09-22T00:05:39.138Z,68.76
2017-09-22T00:08:06.534Z,68.18
2017-09-22T00:10:33.932Z,68.83
2017-09-22T00:13:01.323Z,69.11
2017-09-22T00:15:28.714Z,68.91
2017-09-22T00:17:56.106Z,68.70
2017-09-22T00:20:23.579Z,68.30
2017-09-22T00:22:50.970Z,67.75
2017-09-22T00:25:18.358Z,68.15
2017-09-22T00:27:45.756Z,68.13
2017-09-22T00:30:13.142Z,68.74
2017-09-22T00:32:40.535Z,67.96
2017-09-22T00:35:07.922Z,67.61
2017-09-22T00:37:35.318Z,68.12
2017-09-22T00:40:02.701Z,68.85
2017-09-22T00:42:30.102Z,68.65
2017-09-22T00:44:57.493Z,69.14
2017-09-22T00:47:24.878Z,69.81
2017-09-22T00:49:52.266Z,69.88
2017-09-22T00:52:19.657Z,69.15
2017-09-22T00:54:47.099Z,69.19
2017-09-22T00:57:14.507Z,68.44
2017-09-22T00:59:41.914Z,68.04
2017-09-22T01:02:09.314Z,67.91
2017-09-22T01:04:36.774Z,68.15
2017-09-22T01:07:04.158Z,68.35
2017-09-22T01:09:31.557Z,68.54
2017-09-22T01:11:58.942Z,68.60
2017-09-22T01:14:26.385Z,67.95
2017-09-22T01:16:53.783Z,67.70
2017-09-22T01:19:21.171Z,67.43
2017-09-22T01:21:48.549Z,67.71
2017-09-22T01:24:15.952Z,67.61
2017-09-22T01:26:43.335Z,67.85
2017-09-22T01:29:10.738Z,68.24
2017-09-22T01:31:38.135Z,68.16
2017-09-22T01:34:05.532Z,68.52
2017-09-22T01:36:32.917Z,68.70
2017-09-22T01:39:00.344Z,68.04
2017-09-22T01:41:27.726Z,67.60
2017-09-22T01:43:55.146Z,67.82
2017-09-22T01:46:22.537Z,67.81
2017-09-22T01:48:49.930Z,67.83
2017-09-22T01:51:17.329Z,69.93
2017-09-22T01:53:44.719Z,69.96
2017-09-22T01:56:12.110Z,68.80
2017-09-22T01:58:39.511Z,67.75
2017-09-22T02:01:06.899Z,67.74
2017-09-22T02:03:34.398Z,68.24
2017-09-22T02:06:01.792Z,68.63
2017-09-22T02:08:29.178Z,68.39
2017-09-22T02:10:56.575Z,67.81
2017-09-22T02:13:23.966Z,67.56
2017-09-22T02:15:51.473Z,67.52
2017-09-22T02:18:18.862Z,67.38
2017-09-22T02:20:46.251Z,67.38
2017-09-22T02:23:13.654Z,67.51
2017-09-22T02:25:41.035Z,67.45
2017-09-22T02:28:08.430Z,67.27
2017-09-22T02:30:35.822Z,67.45
2017-09-22T02:33:03.225Z,68.06
2017-09-22T02:35:30.611Z,67.59
2017-09-22T02:37:58.010Z,67.05
2017-09-22T02:40:25.396Z,67.14
2017-09-22T02:42:52.796Z,67.55
2017-09-22T02:45:20.174Z,67.65
2017-09-22T02:47:47.571Z,67.52
2017-09-22T02:50:14.959Z,67.31
2017-09-22T02:52:42.358Z,68.14
2017-09-22T02:55:09.742Z,68.87
2017-09-22T02:57:37.139Z,69.11
2017-09-22T03:00:04.543Z,68.61
2017-09-22T03:02:31.933Z,68.44
2017-09-22T03:04:59.323Z,68.26
2017-09-22T03:07:26.725Z,68.13
2017-09-22T03:09:54.155Z,67.70
2017-09-22T03:12:21.538Z,67.19
2017-09-22T03:14:48.938Z,67.23
2017-09-22T03:17:16.318Z,68.00
2017-09-22T03:19:43.713Z,67.72
2017-09-22T03:22:11.095Z,67.35
2017-09-22T03:24:38.498Z,67.47
2017-09-22T03:27:05.891Z,67.40
2017-09-22T03:29:33.288Z,67.29
2017-09-22T03:32:00.682Z,67.55
2017-09-22T03:34:28.090Z,67.37
2017-09-22T03:36:55.489Z,68.09
2017-09-22T03:39:22.871Z,68.66
2017-09-22T03:41:50.294Z,68.30
2017-09-22T03:44:17.780Z,68.04
2017-09-22T03:46:45.178Z,68.03
2017-09-22T03:49:12.568Z,68.62
2017-09-22T03:51:40.027Z,68.17
2017-09-22T03:54:07.486Z,68.37
2017-09-22T03:56:34.880Z,69.72
2017-09-22T03:59:02.306Z,71.34
2017-09-22T04:01:29.694Z,71.06
2017-09-22T04:03:57.087Z,71.37
2017-09-22T04:06:24.479Z,70.70
2017-09-22T04:08:51.863Z,70.81
2017-09-22T04:11:19.260Z,70.39
2017-09-22T04:13:46.723Z,69.86
2017-09-22T04:16:14.131Z,69.59
2017-09-22T04:18:41.522Z,69.40
2017-09-22T04:21:08.907Z,70.52
2017-09-22T04:23:36.306Z,71.90
2017-09-22T04:26:03.703Z,72.06
2017-09-22T04:28:31.096Z,71.27
2017-09-22T04:30:58.478Z,70.64
2017-09-22T04:33:25.892Z,70.12
2017-09-22T04:35:53.287Z,69.52
2017-09-22T04:38:20.679Z,68.88
2017-09-22T04:40:48.073Z,68.78
2017-09-22T04:43:15.486Z,68.82
2017-09-22T04:45:42.960Z,68.87
2017-09-22T04:48:10.346Z,68.83
2017-09-22T04:50:37.739Z,68.38
2017-09-22T04:53:05.140Z,68.45
2017-09-22T04:55:32.537Z,68.46
2017-09-22T04:57:59.938Z,68.51
2017-09-22T05:00:27.333Z,69.23
2017-09-22T05:02:54.723Z,71.82
2017-09-22T05:05:22.187Z,73.71
2017-09-22T05:07:49.581Z,72.54
2017-09-22T05:10:16.987Z,71.58
2017-09-22T05:12:44.391Z,70.96
2017-09-22T05:15:11.783Z,70.56
2017-09-22T05:17:39.175Z,70.35
2017-09-22T05:20:06.571Z,70.37
2017-09-22T05:22:33.962Z,70.04
2017-09-22T05:25:01.354Z,70.10
2017-09-22T05:27:28.751Z,70.19
2017-09-22T05:29:56.163Z,69.90
2017-09-22T05:32:23.592Z,70.52
2017-09-22T05:34:50.968Z,70.24
2017-09-22T05:37:18.371Z,70.24
2017-09-22T05:39:45.767Z,69.97
2017-09-22T05:42:13.163Z,71.50
2017-09-22T05:44:40.586Z,71.99
2017-09-22T05:47:07.967Z,72.50
2017-09-22T05:49:35.370Z,72.82
2017-09-22T05:52:02.773Z,72.11
2017-09-22T05:54:30.162Z,71.37
2017-09-22T05:56:57.634Z,70.69
2017-09-22T05:59:25.031Z,70.10
2017-09-22T06:01:52.435Z,69.98
2017-09-22T06:04:19.906Z,69.82
2017-09-22T06:06:47.312Z,69.58
2017-09-22T06:09:14.703Z,69.15
2017-09-22T06:11:42.103Z,69.20
2017-09-22T06:14:09.499Z,68.81
2017-09-22T06:16:36.910Z,68.62
2017-09-22T06:19:04.317Z,68.81
2017-09-22T06:21:31.730Z,70.26
2017-09-22T06:23:59.129Z,71.61
2017-09-22T06:26:26.519Z,72.70
2017-09-22T06:28:53.976Z,72.88
2017-09-22T06:31:21.356Z,72.39
2017-09-22T06:33:48.775Z,71.36
2017-09-22T06:36:16.171Z,70.58
2017-09-22T06:38:43.582Z,70.92
2017-09-22T06:41:11.003Z,70.44
2017-09-22T06:43:38.407Z,69.77
2017-09-22T06:46:05.803Z,69.98
2017-09-22T06:48:33.197Z,69.40
2017-09-22T06:51:00.595Z,68.78
2017-09-22T06:53:28.022Z,69.42
2017-09-22T06:55:55.415Z,72.26
2017-09-22T06:58:22.815Z,70.96
2017-09-22T07:00:50.219Z,71.13
2017-09-22T07:03:17.635Z,67.21
2017-09-22T07:05:45.043Z,65.31
2017-09-22T07:08:12.447Z,63.70
2017-09-22T07:10:39.846Z,61.66
2017-09-22T07:13:07.258Z,59.47
2017-09-22T07:15:34.671Z,58.60
2017-09-22T07:18:02.063Z,58.14
2017-09-22T07:20:29.466Z,57.70
2017-09-22T07:22:56.874Z,56.70
2017-09-22T07:25:24.342Z,55.80
2017-09-22T07:27:51.735Z,55.22
2017-09-22T07:30:19.145Z,56.18
2017-09-22T07:32:46.606Z,53.31
2017-09-22T07:35:14.058Z,53.29
2017-09-22T07:37:41.446Z,53.04
2017-09-22T07:40:08.875Z,50.58
2017-09-22T07:42:36.272Z,48.67
2017-09-22T07:45:03.670Z,45.43
2017-09-22T07:47:31.070Z,43.45
2017-09-22T07:49:58.473Z,42.39
2017-09-22T07:52:25.962Z,40.69
2017-09-22T07:54:53.354Z,39.58
2017-09-22T07:57:20.760Z,39.78
2017-09-22T07:59:48.156Z,38.89
2017-09-22T08:02:15.563Z,39.31
2017-09-22T08:04:43.034Z,37.75
2017-09-22T08:07:10.439Z,37.21
2017-09-22T08:09:37.835Z,37.66
2017-09-22T08:12:05.235Z,39.51
2017-09-22T08:14:32.659Z,40.56
2017-09-22T08:17:00.062Z,41.79
2017-09-22T08:19:27.458Z,44.78
2017-09-22T08:21:54.858Z,45.38
2017-09-22T08:24:22.283Z,48.24
2017-09-22T08:26:49.743Z,47.71
2017-09-22T08:29:17.156Z,47.92
2017-09-22T08:31:44.551Z,49.16
2017-09-22T08:34:12.043Z,49.55
2017-09-22T08:36:39.446Z,49.22
2017-09-22T08:39:06.847Z,47.61
2017-09-22T08:41:34.239Z,47.88
2017-09-22T08:44:01.643Z,48.07
2017-09-22T08:46:29.048Z,48.07
2017-09-22T08:48:56.551Z,47.31
2017-09-22T08:51:23.947Z,48.32
2017-09-22T08:53:51.780Z,47.08
2017-09-22T08:56:19.177Z,49.97
2017-09-22T08:58:46.679Z,48.98
2017-09-22T09:01:14.075Z,48.60
2017-09-22T09:03:41.479Z,49.30
2017-09-22T09:06:08.875Z,47.04
2017-09-22T09:08:36.287Z,47.42
2017-09-22T09:11:03.682Z,47.21
2017-09-22T09:13:31.076Z,48.83
2017-09-22T09:15:58.481Z,49.84
2017-09-22T09:18:25.874Z,49.97
2017-09-22T09:20:53.384Z,47.71
2017-09-22T09:23:20.779Z,44.92
2017-09-22T09:25:48.179Z,43.95
2017-09-22T09:28:15.571Z,45.39
2017-09-22T09:30:42.976Z,46.20
2017-09-22T09:33:10.399Z,43.25
2017-09-22T09:35:37.831Z,43.46
2017-09-22T09:38:05.222Z,39.04
2017-09-22T09:40:32.629Z,39.22
2017-09-22T09:43:00.032Z,39.17
2017-09-22T09:45:27.458Z,36.67
2017-09-22T09:47:54.920Z,39.86
2017-09-22T09:50:22.315Z,41.13
2017-09-22T09:52:49.840Z,42.75
2017-09-22T09:55:17.230Z,42.53
2017-09-22T09:57:44.695Z,44.04
2017-09-22T10:00:12.099Z,44.80
2017-09-22T10:02:39.503Z,43.28
2017-09-22T10:05:06.902Z,45.87
2017-09-22T10:07:34.303Z,47.21
2017-09-22T10:10:01.705Z,45.14
2017-09-22T10:12:29.113Z,44.72
2017-09-22T10:14:56.535Z,47.38
2017-09-22T10:17:23.939Z,45.06
2017-09-22T10:19:51.341Z,43.82
2017-09-22T10:22:18.774Z,45.45
2017-09-22T10:24:46.187Z,43.29
2017-09-22T10:27:13.579Z,43.39
2017-09-22T10:29:40.987Z,45.46
2017-09-22T10:32:08.382Z,48.67
2017-09-22T10:34:35.789Z,44.09
2017-09-22T10:37:03.182Z,44.85
2017-09-22T10:39:30.590Z,45.40
2017-09-22T10:41:57.989Z,44.47
2017-09-22T10:44:25.393Z,46.67
2017-09-22T10:46:52.787Z,48.45
2017-09-22T10:49:20.207Z,46.17
2017-09-22T10:51:47.599Z,47.61
2017-09-22T10:54:15.019Z,46.21
2017-09-22T10:56:42.695Z,48.77
2017-09-22T10:59:10.246Z,49.00
2017-09-22T11:01:37.655Z,48.26
2017-09-22T11:04:05.057Z,49.71
2017-09-22T11:06:32.522Z,51.08
2017-09-22T11:08:59.914Z,50.14
2017-09-22T11:11:27.321Z,48.64
2017-09-22T11:13:54.711Z,49.05
2017-09-22T11:16:22.130Z,46.20
2017-09-22T11:18:49.510Z,48.94
2017-09-22T11:21:16.978Z,48.84
2017-09-22T11:23:44.367Z,46.51
2017-09-22T11:26:11.882Z,47.27
2017-09-22T11:28:39.274Z,45.71
2017-09-22T11:31:06.235Z,46.27
2017-09-22T11:33:33.640Z,45.17
2017-09-22T11:36:01.035Z,46.31
2017-09-22T11:40:55.115Z,46.64
2017-09-22T11:43:22.524Z,46.20
2017-09-22T11:45:49.919Z,45.90
2017-09-22T11:48:17.354Z,46.97
2017-09-22T11:50:44.723Z,48.79
2017-09-22T11:53:12.128Z,45.15
2017-09-22T11:55:39.514Z,45.84
2017-09-22T11:58:07.013Z,43.45
2017-09-22T12:00:34.387Z,45.21
2017-09-22T12:03:01.780Z,44.77
2017-09-22T12:05:29.179Z,42.89
2017-09-22T12:07:56.572Z,43.06
2017-09-22T12:10:23.981Z,44.37
2017-09-22T12:12:51.375Z,42.96
2017-09-22T12:15:18.928Z,43.59
2017-09-22T12:17:46.453Z,45.80
2017-09-22T12:20:13.859Z,47.76
2017-09-22T12:22:41.263Z,44.24
2017-09-22T12:25:08.658Z,43.66
2017-09-22T12:27:36.051Z,44.04
2017-09-22T12:30:03.886Z,43.51
2017-09-22T12:32:31.274Z,45.29
2017-09-22T12:34:58.750Z,44.37
2017-09-22T12:37:26.135Z,43.79
2017-09-22T12:39:53.526Z,44.09
2017-09-22T12:42:20.922Z,45.89
2017-09-22T12:44:48.310Z,44.14
2017-09-22T12:47:15.711Z,42.48
2017-09-22T12:49:43.101Z,43.30
2017-09-22T12:52:10.505Z,42.09
2017-09-22T12:54:37.883Z,41.97
2017-09-22T12:57:05.287Z,43.03
2017-09-22T12:59:32.675Z,42.48
2017-09-22T13:02:00.087Z,40.86
2017-09-22T13:04:27.475Z,42.90
2017-09-22T13:06:54.859Z,41.69
2017-09-22T13:09:23.147Z,42.05
2017-09-22T13:11:50.543Z,42.05
2017-09-22T13:14:17.946Z,43.98
2017-09-22T13:16:45.420Z,42.37
2017-09-22T13:19:12.823Z,42.93
2017-09-22T13:21:40.210Z,44.97
2017-09-22T13:24:07.607Z,40.30
2017-09-22T13:26:34.991Z,41.41
2017-09-22T13:29:02.388Z,41.59
2017-09-22T13:31:29.791Z,42.88
2017-09-22T13:33:57.191Z,44.13
2017-09-22T13:36:24.584Z,42.49
2017-09-22T13:38:51.971Z,42.69
2017-09-22T13:41:19.359Z,41.88
2017-09-22T13:43:46.843Z,42.29
2017-09-22T13:46:14.223Z,44.50
2017-09-22T13:48:41.613Z,42.76
2017-09-22T13:51:09.011Z,41.46
2017-09-22T13:53:36.404Z,42.22
2017-09-22T13:56:03.803Z,41.92
2017-09-22T13:58:31.191Z,42.46
2017-09-22T14:00:58.588Z,42.74
2017-09-22T14:03:25.993Z,43.26
2017-09-22T14:05:53.442Z,44.76
2017-09-22T14:08:20.835Z,42.29
2017-09-22T14:10:48.229Z,42.77
2017-09-22T14:13:15.614Z,43.21
2017-09-22T14:15:43.010Z,44.28
2017-09-22T14:18:10.394Z,45.49
2017-09-22T14:20:37.795Z,42.76
2017-09-22T14:23:05.187Z,43.63
2017-09-22T14:25:32.582Z,43.40
2017-09-22T14:27:59.974Z,43.87
2017-09-22T14:30:27.380Z,43.52
2017-09-22T14:32:54.758Z,43.35
2017-09-22T14:35:22.149Z,42.80
2017-09-22T14:37:49.540Z,42.51
2017-09-22T14:40:16.941Z,42.55
2017-09-22T14:42:44.339Z,42.80
2017-09-22T14:45:11.738Z,43.90
2017-09-22T14:47:39.158Z,44.16
2017-09-22T14:50:06.547Z,44.36
2017-09-22T14:52:33.939Z,44.04
2017-09-22T14:55:01.331Z,43.70
2017-09-22T14:57:28.719Z,43.15
2017-09-22T14:59:56.106Z,42.49
2017-09-22T15:02:23.512Z,42.55
2017-09-22T15:04:50.900Z,44.09
2017-09-22T15:07:18.307Z,43.76
2017-09-22T15:09:45.694Z,43.14
2017-09-22T15:12:13.087Z,42.47
2017-09-22T15:14:40.482Z,42.99
2017-09-22T15:17:07.874Z,43.26
2017-09-22T15:19:35.267Z,44.13
2017-09-22T15:22:02.659Z,43.41
2017-09-22T15:24:30.065Z,43.03
2017-09-22T15:26:57.463Z,45.34
2017-09-22T15:29:24.851Z,44.92
2017-09-22T15:31:52.243Z,45.74
2017-09-22T15:34:19.639Z,45.73
2017-09-22T15:36:47.023Z,46.32
2017-09-22T15:39:14.478Z,46.49
2017-09-22T15:41:41.859Z,45.82
2017-09-22T15:44:09.259Z,45.76
2017-09-22T15:46:36.668Z,46.24
2017-09-22T15:49:04.163Z,48.01
2017-09-22T15:51:31.543Z,47.24
2017-09-22T15:53:58.941Z,47.19
2017-09-22T15:56:26.442Z,47.33
2017-09-22T15:58:53.811Z,47.14
2017-09-22T16:01:21.212Z,46.56
2017-09-22T16:03:48.603Z,47.92
2017-09-22T16:06:15.994Z,47.04
2017-09-22T16:08:43.403Z,48.14
2017-09-22T16:11:10.815Z,48.38
2017-09-22T16:13:38.195Z,48.59
2017-09-22T16:16:05.586Z,48.54
2017-09-22T16:18:32.982Z,48.98
2017-09-22T16:21:00.367Z,49.82
2017-09-22T16:23:27.751Z,49.22
2017-09-22T16:25:55.159Z,49.61
2017-09-22T16:28:22.544Z,50.12
2017-09-22T16:30:49.951Z,49.63
2017-09-22T16:33:17.335Z,49.92
2017-09-22T16:35:44.810Z,49.83
2017-09-22T16:38:12.207Z,50.34
2017-09-22T16:40:39.609Z,49.95
2017-09-22T16:43:07.006Z,52.32
2017-09-22T16:45:34.715Z,53.82
2017-09-22T16:48:02.119Z,54.08
2017-09-22T16:50:29.512Z,54.48
2017-09-22T16:52:56.914Z,55.41
2017-09-22T16:55:24.304Z,55.76
2017-09-22T16:57:51.722Z,55.81
2017-09-22T17:00:19.110Z,56.19
2017-09-22T17:02:46.513Z,56.36
2017-09-22T17:05:13.909Z,56.35
2017-09-22T17:07:41.303Z,56.89
2017-09-22T17:10:08.691Z,57.93
2017-09-22T17:12:36.086Z,57.90
2017-09-22T17:15:03.478Z,58.01
2017-09-22T17:17:30.971Z,57.37
2017-09-22T17:19:58.358Z,56.65
2017-09-22T17:22:25.762Z,56.04
2017-09-22T17:24:53.159Z,56.48
2017-09-22T17:27:20.545Z,57.37
2017-09-22T17:29:47.938Z,57.63
2017-09-22T17:32:15.332Z,57.58
2017-09-22T17:34:42.734Z,56.63
2017-09-22T17:37:10.128Z,57.84
2017-09-22T17:39:37.547Z,57.32
2017-09-22T17:42:04.938Z,58.05
2017-09-22T17:44:32.343Z,58.48
2017-09-22T17:46:59.739Z,58.87
2017-09-22T17:49:27.148Z,59.39
2017-09-22T17:51:54.625Z,59.52
2017-09-22T17:54:22.018Z,59.58
2017-09-22T17:56:49.570Z,59.80
2017-09-22T17:59:16.979Z,59.87
2017-09-22T18:01:44.370Z,60.39
2017-09-22T18:04:11.754Z,60.69
2017-09-22T18:06:39.155Z,60.55
2017-09-22T18:09:06.543Z,60.45
2017-09-22T18:11:33.941Z,60.58
2017-09-22T18:14:01.333Z,60.72
2017-09-22T18:16:28.830Z,60.99
2017-09-22T18:18:56.221Z,61.21
2017-09-22T18:21:23.624Z,60.96
2017-09-22T18:23:51.822Z,61.71
2017-09-22T18:26:19.218Z,61.08
2017-09-22T18:28:46.612Z,61.15
2017-09-22T18:31:14.011Z,62.65
2017-09-22T18:33:41.407Z,63.19
2017-09-22T18:36:08.811Z,62.86
2017-09-22T18:38:36.204Z,62.68
2017-09-22T18:41:03.610Z,62.54
2017-09-22T18:43:31.001Z,63.70
2017-09-22T18:45:58.535Z,64.00
2017-09-22T18:48:25.928Z,63.02
2017-09-22T18:50:53.336Z,63.93
2017-09-22T18:53:20.723Z,63.27
2017-09-22T18:55:48.119Z,64.88
2017-09-22T18:58:15.518Z,65.59
2017-09-22T19:00:42.918Z,65.92
2017-09-22T19:03:10.326Z,66.51
2017-09-22T19:05:37.722Z,66.75
2017-09-22T19:08:05.133Z,67.08
2017-09-22T19:10:32.523Z,66.58
2017-09-22T19:13:00.031Z,65.42
2017-09-22T19:15:27.426Z,65.25
2017-09-22T19:17:54.939Z,65.44
2017-09-22T19:20:22.326Z,66.64
2017-09-22T19:22:49.753Z,66.11
2017-09-22T19:25:17.154Z,65.94
2017-09-22T19:27:44.562Z,64.96
2017-09-22T19:30:11.954Z,64.49
2017-09-22T19:32:39.359Z,65.77
2017-09-22T19:35:06.762Z,66.82
2017-09-22T19:37:34.202Z,66.14
2017-09-22T19:40:01.576Z,65.33
2017-09-22T19:42:29.054Z,64.94
2017-09-22T19:44:56.457Z,65.11
2017-09-22T19:47:23.843Z,65.29
2017-09-22T19:49:51.230Z,65.07
2017-09-22T19:52:18.622Z,65.03
2017-09-22T19:54:46.014Z,64.95
2017-09-22T19:57:13.401Z,64.63
2017-09-22T19:59:40.790Z,64.98
2017-09-22T20:02:08.195Z,64.95
2017-09-22T20:04:35.584Z,65.02
2017-09-22T20:07:02.984Z,65.71
2017-09-22T20:09:30.383Z,66.40
2017-09-22T20:11:57.766Z,66.61
2017-09-22T20:14:25.172Z,66.55
2017-09-22T20:16:52.563Z,66.05
2017-09-22T20:19:19.964Z,66.76
2017-09-22T20:21:47.352Z,66.69
2017-09-22T20:24:14.748Z,65.80
2017-09-22T20:26:42.135Z,65.60
2017-09-22T20:29:09.521Z,66.09
2017-09-22T20:31:37.002Z,66.79
2017-09-22T20:34:04.404Z,66.82
2017-09-22T20:36:31.791Z,66.06
2017-09-22T20:38:59.194Z,66.01
2017-09-22T20:41:26.572Z,65.94
2017-09-22T20:43:54.010Z,66.66
2017-09-22T20:46:21.438Z,65.88
2017-09-22T20:48:48.895Z,66.83
2017-09-22T20:51:16.294Z,67.17
2017-09-22T20:53:43.702Z,67.45
2017-09-22T20:56:11.174Z,66.17
2017-09-22T20:58:38.571Z,65.66
2017-09-22T21:01:05.982Z,66.59
2017-09-22T21:03:33.380Z,65.63
2017-09-22T21:06:00.780Z,66.19
2017-09-22T21:08:28.251Z,65.98
2017-09-22T21:10:55.706Z,67.21
2017-09-22T21:13:23.086Z,66.95
2017-09-22T21:15:50.487Z,67.19
2017-09-22T21:18:17.881Z,66.14
2017-09-22T21:20:45.275Z,66.00
2017-09-22T21:23:12.680Z,65.66
2017-09-22T21:25:40.071Z,65.69
2017-09-22T21:28:07.458Z,66.00
2017-09-22T21:30:34.856Z,66.47
2017-09-22T21:33:02.299Z,66.87
2017-09-22T21:35:29.703Z,67.46
2017-09-22T21:37:57.087Z,67.33
2017-09-22T21:40:24.490Z,66.48
2017-09-22T21:42:51.876Z,66.55
2017-09-22T21:45:19.383Z,66.14
2017-09-22T21:47:46.788Z,66.40
2017-09-22T21:50:14.191Z,66.82
2017-09-22T21:52:41.576Z,66.13
2017-09-22T21:55:08.966Z,65.65
2017-09-22T21:57:36.379Z,65.92
2017-09-22T22:00:04.280Z,66.03
2017-09-22T22:02:37.334Z,66.54
2017-09-22T22:05:10.364Z,66.04
2017-09-22T22:07:37.745Z,67.08
2017-09-22T22:10:05.151Z,70.19
2017-09-22T22:12:32.550Z,70.24
2017-09-22T22:14:59.938Z,69.30
2017-09-22T22:17:27.339Z,68.45
2017-09-22T22:19:54.740Z,68.12
2017-09-22T22:22:22.159Z,67.36
2017-09-22T22:24:49.552Z,67.88
2017-09-22T22:27:16.942Z,68.28
2017-09-22T22:29:44.329Z,67.44
2017-09-22T22:32:11.739Z,67.97
2017-09-22T22:34:39.135Z,67.73
2017-09-22T22:37:06.604Z,67.50
2017-09-22T22:39:33.999Z,68.04
2017-09-22T22:42:01.404Z,68.02
2017-09-22T22:44:28.798Z,67.80
2017-09-22T22:46:56.183Z,67.95
2017-09-22T22:49:23.565Z,67.82
2017-09-22T22:51:50.963Z,67.42
2017-09-22T22:54:18.356Z,66.62
2017-09-22T22:56:45.756Z,66.75
2017-09-22T22:59:13.146Z,66.90
2017-09-22T23:01:40.538Z,66.49
2017-09-22T23:04:07.938Z,66.11
2017-09-22T23:06:35.318Z,67.00
2017-09-22T23:09:02.731Z,67.17
2017-09-22T23:11:30.122Z,67.47
2017-09-22T23:13:57.516Z,66.68
2017-09-22T23:16:24.898Z,66.89
2017-09-22T23:18:52.294Z,66.73
2017-09-22T23:21:19.679Z,67.82
2017-09-22T23:23:47.070Z,68.40
2017-09-22T23:26:14.478Z,67.98
2017-09-22T23:28:41.971Z,67.92
2017-09-22T23:31:09.435Z,67.64
2017-09-22T23:33:36.838Z,68.03
2017-09-22T23:36:04.234Z,69.06
2017-09-22T23:38:31.646Z,70.10
2017-09-22T23:40:59.030Z,69.99
2017-09-22T23:43:26.434Z,69.53
2017-09-22T23:45:53.819Z,69.27
2017-09-22T23:48:21.219Z,69.33
2017-09-22T23:50:48.619Z,68.90
2017-09-22T23:53:16.024Z,69.48
2017-09-22T23:55:43.418Z,70.04
2017-09-22T23:58:11.194Z,69.87
